createdAt,value
2022-11-02T00:00:10.762Z,3.20
2022-11-02T00:01:10.987Z,3.40
2022-11-02T00:02:11.347Z,3.40
2022-11-02T00:03:11.654Z,3.40
2022-11-02T00:04:11.881Z,3.20
2022-11-02T00:05:12.081Z,3.50
2022-11-02T00:06:12.442Z,3.20
2022-11-02T00:07:12.681Z,3.00
2022-11-02T00:08:13.011Z,3.20
2022-11-02T00:09:13.330Z,3.20
2022-11-02T00:10:13.593Z,3.10
2022-11-02T00:11:13.920Z,3.20
2022-11-02T00:12:14.611Z,3.20
2022-11-02T00:13:14.447Z,3.00
2022-11-02T00:14:14.767Z,3.20
2022-11-02T00:15:15.126Z,3.00
2022-11-02T00:16:15.380Z,3.10
2022-11-02T00:17:16.078Z,3.30
2022-11-02T00:18:15.942Z,3.20
2022-11-02T00:19:16.225Z,3.10
2022-11-02T00:20:16.552Z,3.00
2022-11-02T00:21:16.864Z,2.90
2022-11-02T00:22:17.524Z,3.10
2022-11-02T00:23:17.536Z,3.10
2022-11-02T00:24:17.849Z,3.20
2022-11-02T00:25:18.165Z,3.20
2022-11-02T00:26:18.407Z,3.20
2022-11-02T00:27:18.702Z,3.10
2022-11-02T00:28:19.140Z,3.30
2022-11-02T00:29:19.424Z,3.20
2022-11-02T00:30:19.622Z,3.10
2022-11-02T00:31:19.823Z,3.20
2022-11-02T00:32:20.183Z,3.20
2022-11-02T00:33:20.497Z,3.20
2022-11-02T00:34:20.839Z,3.10
2022-11-02T00:35:21.140Z,3.20
2022-11-02T00:36:21.372Z,3.20
2022-11-02T00:37:21.786Z,3.30
2022-11-02T00:38:21.963Z,3.30
2022-11-02T00:39:22.274Z,3.00
2022-11-02T00:40:22.571Z,3.30
2022-11-02T00:41:22.856Z,3.30
2022-11-02T00:42:23.170Z,3.40
2022-11-02T00:43:23.384Z,3.20
2022-11-02T00:44:23.692Z,3.00
2022-11-02T00:45:23.957Z,3.50
2022-11-02T00:46:24.268Z,3.20
2022-11-02T00:47:24.645Z,3.30
2022-11-02T00:48:25.022Z,3.60
2022-11-02T00:49:25.212Z,3.30
2022-11-02T00:50:25.510Z,3.30
2022-11-02T00:51:25.795Z,3.30
2022-11-02T00:52:26.123Z,3.30
2022-11-02T00:53:26.447Z,3.10
2022-11-02T00:54:28.575Z,3.30
2022-11-02T00:55:27.074Z,3.30
2022-11-02T00:56:27.364Z,3.20
2022-11-02T00:57:27.642Z,3.40
2022-11-02T00:58:27.964Z,3.10
2022-11-02T00:59:28.283Z,3.10
2022-11-02T01:00:28.975Z,3.40
2022-11-02T01:01:28.893Z,3.40
2022-11-02T01:02:29.214Z,3.00
2022-11-02T01:03:29.430Z,3.40
2022-11-02T01:04:36.598Z,3.10
2022-11-02T01:05:30.058Z,3.30
2022-11-02T01:06:30.245Z,3.40
2022-11-02T01:07:30.529Z,3.20
2022-11-02T01:08:30.877Z,3.30
2022-11-02T01:09:31.189Z,3.30
2022-11-02T01:10:31.494Z,3.40
2022-11-02T01:11:31.816Z,3.20
2022-11-02T01:12:32.108Z,3.40
2022-11-02T01:13:32.404Z,4.80
2022-11-02T01:14:32.712Z,4.60
2022-11-02T01:15:33.047Z,3.40
2022-11-02T01:16:33.432Z,5.10
2022-11-02T01:17:33.594Z,4.70
2022-11-02T01:18:33.890Z,5.00
2022-11-02T01:19:34.240Z,3.20
2022-11-02T01:20:34.490Z,3.40
2022-11-02T01:21:34.760Z,3.20
2022-11-02T01:22:35.139Z,3.20
2022-11-02T01:23:35.413Z,3.10
2022-11-02T01:24:35.724Z,3.30
2022-11-02T01:25:36.019Z,3.40
2022-11-02T01:26:36.454Z,3.40
2022-11-02T01:27:36.607Z,3.10
2022-11-02T01:28:36.982Z,3.20
2022-11-02T01:29:37.272Z,3.30
2022-11-02T01:30:37.582Z,3.40
2022-11-02T01:31:37.898Z,3.30
2022-11-02T01:32:38.202Z,3.00
2022-11-02T01:33:38.481Z,3.40
2022-11-02T01:34:38.861Z,3.30
2022-11-02T01:35:39.167Z,3.40
2022-11-02T01:36:39.524Z,3.50
2022-11-02T01:37:39.728Z,3.30
2022-11-02T01:38:40.018Z,3.60
2022-11-02T01:39:40.367Z,3.50
2022-11-02T01:40:40.745Z,3.30
2022-11-02T01:41:41.033Z,3.40
2022-11-02T01:42:41.232Z,3.70
2022-11-02T01:43:41.559Z,3.20
2022-11-02T01:44:41.893Z,3.10
2022-11-02T01:45:42.141Z,3.40
2022-11-02T01:46:42.448Z,3.50
2022-11-02T01:47:42.840Z,3.40
2022-11-02T01:48:43.008Z,3.60
2022-11-02T01:49:44.257Z,3.30
2022-11-02T01:50:43.706Z,3.30
2022-11-02T01:51:44.166Z,3.60
2022-11-02T01:52:44.313Z,3.50
2022-11-02T01:53:44.694Z,3.40
2022-11-02T01:54:45.001Z,3.70
2022-11-02T01:55:45.289Z,3.40
2022-11-02T01:56:45.582Z,3.20
2022-11-02T01:57:45.877Z,3.60
2022-11-02T01:58:46.172Z,3.30
2022-11-02T01:59:46.486Z,3.30
2022-11-02T02:00:46.786Z,3.30
2022-11-02T02:01:47.100Z,3.40
2022-11-02T02:02:47.373Z,3.80
2022-11-02T02:03:47.533Z,3.20
2022-11-02T02:04:47.898Z,3.40
2022-11-02T02:05:48.268Z,3.50
2022-11-02T02:06:48.502Z,3.50
2022-11-02T02:07:48.687Z,3.50
2022-11-02T02:08:49.034Z,3.50
2022-11-02T02:09:51.428Z,3.50
2022-11-02T02:10:49.576Z,3.50
2022-11-02T02:11:49.742Z,3.70
2022-11-02T02:12:50.045Z,3.30
2022-11-02T02:13:50.343Z,3.60
2022-11-02T02:14:50.646Z,3.50
2022-11-02T02:15:50.938Z,3.70
2022-11-02T02:16:51.232Z,3.50
2022-11-02T02:17:51.488Z,3.20
2022-11-02T02:18:51.764Z,3.30
2022-11-02T02:19:52.034Z,3.40
2022-11-02T02:20:52.474Z,3.50
2022-11-02T02:21:52.680Z,3.40
2022-11-02T02:22:52.976Z,3.40
2022-11-02T02:23:53.290Z,3.50
2022-11-02T02:24:53.562Z,3.30
2022-11-02T02:25:53.870Z,3.50
2022-11-02T02:26:54.202Z,3.60
2022-11-02T02:27:54.552Z,3.20
2022-11-02T02:28:54.850Z,3.30
2022-11-02T02:29:55.000Z,3.30
2022-11-02T02:30:55.394Z,3.60
2022-11-02T02:31:55.570Z,3.20
2022-11-02T02:32:55.908Z,3.60
2022-11-02T02:33:56.134Z,3.50
2022-11-02T02:34:56.461Z,3.30
2022-11-02T02:35:56.876Z,3.80
2022-11-02T02:36:57.092Z,3.80
2022-11-02T02:37:57.422Z,3.50
2022-11-02T02:38:58.676Z,3.40
2022-11-02T02:39:57.989Z,3.30
2022-11-02T02:40:58.289Z,3.30
2022-11-02T02:41:58.591Z,3.50
2022-11-02T02:42:58.957Z,3.10
2022-11-02T02:43:59.153Z,3.40
2022-11-02T02:44:59.487Z,3.40
2022-11-02T02:45:59.772Z,3.30
2022-11-02T02:47:00.119Z,3.40
2022-11-02T02:48:00.479Z,3.20
2022-11-02T02:49:00.661Z,3.40
2022-11-02T02:50:01.046Z,3.20
2022-11-02T02:51:01.331Z,3.30
2022-11-02T02:52:01.699Z,3.10
2022-11-02T02:53:01.982Z,3.40
2022-11-02T02:54:02.339Z,3.40
2022-11-02T02:55:02.624Z,3.50
2022-11-02T02:56:02.981Z,3.20
2022-11-02T02:57:03.706Z,3.20
2022-11-02T02:58:04.096Z,3.10
2022-11-02T02:59:03.864Z,3.10
2022-11-02T03:00:04.199Z,3.30
2022-11-02T03:01:04.418Z,3.50
2022-11-02T03:02:04.833Z,3.30
2022-11-02T03:03:05.039Z,3.10
2022-11-02T03:04:05.350Z,3.40
2022-11-02T03:05:05.674Z,3.20
2022-11-02T03:06:05.990Z,3.20
2022-11-02T03:07:06.376Z,3.40
2022-11-02T03:08:06.820Z,3.20
2022-11-02T03:09:06.818Z,3.40
2022-11-02T03:10:07.250Z,3.30
2022-11-02T03:11:07.660Z,3.30
2022-11-02T03:12:07.821Z,3.20
2022-11-02T03:13:08.024Z,3.20
2022-11-02T03:14:08.330Z,3.30
2022-11-02T03:15:08.618Z,3.20
2022-11-02T03:16:08.958Z,3.30
2022-11-02T03:17:09.260Z,3.40
2022-11-02T03:18:09.532Z,3.40
2022-11-02T03:19:09.848Z,3.20
2022-11-02T03:20:10.232Z,3.10
2022-11-02T03:21:10.515Z,3.10
2022-11-02T03:22:10.939Z,3.40
2022-11-02T03:23:11.085Z,3.30
2022-11-02T03:24:11.420Z,3.00
2022-11-02T03:25:12.150Z,3.30
2022-11-02T03:26:12.035Z,3.40
2022-11-02T03:27:12.326Z,3.30
2022-11-02T03:28:12.625Z,3.20
2022-11-02T03:29:12.939Z,3.30
2022-11-02T03:30:13.209Z,3.20
2022-11-02T03:31:13.566Z,3.60
2022-11-02T03:32:13.857Z,3.30
2022-11-02T03:33:14.202Z,3.10
2022-11-02T03:34:14.523Z,3.70
2022-11-02T03:35:14.959Z,3.10
2022-11-02T03:36:15.111Z,3.40
2022-11-02T03:37:15.428Z,3.10
2022-11-02T03:38:15.664Z,3.40
2022-11-02T03:39:16.034Z,3.30
2022-11-02T03:40:16.354Z,3.30
2022-11-02T03:41:16.703Z,3.40
2022-11-02T03:42:17.009Z,3.20
2022-11-02T03:43:17.204Z,3.20
2022-11-02T03:44:17.509Z,3.20
2022-11-02T03:45:17.775Z,3.20
2022-11-02T03:46:18.177Z,3.20
2022-11-02T03:47:18.383Z,3.30
2022-11-02T03:48:18.655Z,3.10
2022-11-02T03:49:18.978Z,3.30
2022-11-02T03:50:19.219Z,3.30
2022-11-02T03:51:19.602Z,3.30
2022-11-02T03:52:19.882Z,3.10
2022-11-02T03:53:21.065Z,3.20
2022-11-02T03:54:20.524Z,3.30
2022-11-02T03:55:20.809Z,3.30
2022-11-02T03:56:21.083Z,3.30
2022-11-02T03:57:21.426Z,2.90
2022-11-02T03:58:21.798Z,3.20
2022-11-02T03:59:22.113Z,3.00
2022-11-02T04:00:22.405Z,3.20
2022-11-02T04:01:22.779Z,3.30
2022-11-02T04:02:23.104Z,3.40
2022-11-02T04:03:23.343Z,3.20
2022-11-02T04:04:23.627Z,3.20
2022-11-02T04:05:23.933Z,3.10
2022-11-02T04:06:24.284Z,3.10
2022-11-02T04:07:24.478Z,3.20
2022-11-02T04:08:24.786Z,3.20
2022-11-02T04:09:25.080Z,3.20
2022-11-02T04:10:25.411Z,3.40
2022-11-02T04:11:25.695Z,3.10
2022-11-02T04:12:26.021Z,3.20
2022-11-02T04:13:26.432Z,3.00
2022-11-02T04:14:26.610Z,3.40
2022-11-02T04:15:26.883Z,3.40
2022-11-02T04:16:28.338Z,3.30
2022-11-02T04:17:27.631Z,3.00
2022-11-02T04:18:27.849Z,3.30
2022-11-02T04:19:28.145Z,3.00
2022-11-02T04:20:28.456Z,3.40
2022-11-02T04:21:28.770Z,3.20
2022-11-02T04:22:29.118Z,3.10
2022-11-02T04:23:29.386Z,3.40
2022-11-02T04:24:29.710Z,3.00
2022-11-02T04:25:30.120Z,3.10
2022-11-02T04:26:30.318Z,3.30
2022-11-02T04:27:30.637Z,3.20
2022-11-02T04:28:30.817Z,3.20
2022-11-02T04:29:31.144Z,3.10
2022-11-02T04:30:31.446Z,3.00
2022-11-02T04:31:31.750Z,3.10
2022-11-02T04:32:32.062Z,3.20
2022-11-02T04:33:32.374Z,3.10
2022-11-02T04:34:32.689Z,3.20
2022-11-02T04:35:33.006Z,3.00
2022-11-02T04:36:33.250Z,3.20
2022-11-02T04:37:33.539Z,3.40
2022-11-02T04:38:33.863Z,3.20
2022-11-02T04:39:34.166Z,2.90
2022-11-02T04:40:34.484Z,3.00
2022-11-02T04:41:34.789Z,3.30
2022-11-02T04:42:35.098Z,2.90
2022-11-02T04:43:35.476Z,3.30
2022-11-02T04:44:35.644Z,3.30
2022-11-02T04:45:35.953Z,3.10
2022-11-02T04:46:36.250Z,3.00
2022-11-02T04:47:37.011Z,3.20
2022-11-02T04:48:36.883Z,3.10
2022-11-02T04:49:37.183Z,3.20
2022-11-02T04:50:37.525Z,3.40
2022-11-02T04:51:37.823Z,3.30
2022-11-02T04:52:38.182Z,3.30
2022-11-02T04:53:38.470Z,3.00
2022-11-02T04:54:38.860Z,2.90
2022-11-02T04:55:39.206Z,3.10
2022-11-02T04:56:39.496Z,3.30
2022-11-02T04:58:40.031Z,3.20
2022-11-02T04:59:40.241Z,3.10
2022-11-02T05:00:40.585Z,3.00
2022-11-02T05:01:40.938Z,2.90
2022-11-02T05:02:41.246Z,3.00
2022-11-02T05:03:41.405Z,2.80
2022-11-02T05:04:41.735Z,2.90
2022-11-02T05:05:42.086Z,3.30
2022-11-02T05:06:42.397Z,3.20
2022-11-02T05:07:42.704Z,2.90
2022-11-02T05:08:42.978Z,2.90
2022-11-02T05:09:43.234Z,3.00
2022-11-02T05:10:43.412Z,3.10
2022-11-02T05:11:43.808Z,3.00
2022-11-02T05:12:43.962Z,2.80
2022-11-02T05:13:44.275Z,3.10
2022-11-02T05:14:44.562Z,3.20
2022-11-02T05:15:44.850Z,3.30
2022-11-02T05:16:45.184Z,3.10
2022-11-02T05:17:45.495Z,3.10
2022-11-02T05:18:45.772Z,3.00
2022-11-02T05:19:46.069Z,2.90
2022-11-02T05:20:46.446Z,3.20
2022-11-02T05:21:46.645Z,3.20
2022-11-02T05:22:46.973Z,3.20
2022-11-02T05:23:47.260Z,3.20
2022-11-02T05:24:47.462Z,3.00
2022-11-02T05:25:47.779Z,3.00
2022-11-02T05:26:52.843Z,2.80
2022-11-02T05:27:49.266Z,2.80
2022-11-02T05:28:48.667Z,3.10
2022-11-02T05:29:48.866Z,3.30
2022-11-02T05:30:49.167Z,3.10
2022-11-02T05:31:49.446Z,2.90
2022-11-02T05:32:49.774Z,3.20
2022-11-02T05:33:50.072Z,3.00
2022-11-02T05:34:50.498Z,3.20
2022-11-02T05:35:50.790Z,2.90
2022-11-02T05:36:51.138Z,2.90
2022-11-02T05:37:51.322Z,2.90
2022-11-02T05:38:51.530Z,2.80
2022-11-02T05:39:51.843Z,2.60
2022-11-02T05:40:52.169Z,3.00
2022-11-02T05:41:52.481Z,3.30
2022-11-02T05:42:52.829Z,3.40
2022-11-02T05:43:53.100Z,3.00
2022-11-02T05:44:53.381Z,3.00
2022-11-02T05:45:54.621Z,2.80
2022-11-02T05:46:54.069Z,2.80
2022-11-02T05:47:54.259Z,3.00
2022-11-02T05:48:54.579Z,3.00
2022-11-02T05:49:54.915Z,2.90
2022-11-02T05:50:55.158Z,2.80
2022-11-02T05:51:55.421Z,3.20
2022-11-02T05:52:55.711Z,3.10
2022-11-02T05:53:55.949Z,3.00
2022-11-02T05:54:56.321Z,3.00
2022-11-02T05:55:56.501Z,3.10
2022-11-02T05:56:56.741Z,2.90
2022-11-02T05:57:57.159Z,3.20
2022-11-02T05:58:57.348Z,2.90
2022-11-02T05:59:58.527Z,3.40
2022-11-02T06:00:57.945Z,3.20
2022-11-02T06:01:58.332Z,3.30
2022-11-02T06:02:58.415Z,3.40
2022-11-02T06:03:58.649Z,3.30
2022-11-02T06:04:59.051Z,3.30
2022-11-02T06:05:59.298Z,3.00
2022-11-02T06:06:59.490Z,3.10
2022-11-02T06:07:59.735Z,3.10
2022-11-02T06:09:04.344Z,3.10
2022-11-02T06:10:01.295Z,3.10
2022-11-02T06:11:00.582Z,3.60
2022-11-02T06:12:00.849Z,3.10
2022-11-02T06:13:01.282Z,3.20
2022-11-02T06:14:01.445Z,3.80
2022-11-02T06:15:01.681Z,3.40
2022-11-02T06:16:01.930Z,3.30
2022-11-02T06:17:02.156Z,3.30
2022-11-02T06:18:02.517Z,3.10
2022-11-02T06:19:02.885Z,3.10
2022-11-02T06:20:03.050Z,3.30
2022-11-02T06:21:03.330Z,3.10
2022-11-02T06:22:03.536Z,3.50
2022-11-02T06:23:04.204Z,3.10
2022-11-02T06:24:04.103Z,3.20
2022-11-02T06:25:04.364Z,3.40
2022-11-02T06:26:04.643Z,3.50
2022-11-02T06:27:04.867Z,3.60
2022-11-02T06:28:05.213Z,3.50
2022-11-02T06:29:05.565Z,3.20
2022-11-02T06:30:05.878Z,3.50
2022-11-02T06:31:06.087Z,3.50
2022-11-02T06:32:06.376Z,3.20
2022-11-02T06:33:07.400Z,3.50
2022-11-02T06:34:06.831Z,3.60
2022-11-02T06:35:07.108Z,3.20
2022-11-02T06:36:07.363Z,3.50
2022-11-02T06:37:07.574Z,3.20
2022-11-02T06:38:07.957Z,3.40
2022-11-02T06:39:08.216Z,3.60
2022-11-02T06:40:08.456Z,3.40
2022-11-02T06:41:08.739Z,3.30
2022-11-02T06:42:09.026Z,3.70
2022-11-02T06:43:17.685Z,3.30
2022-11-02T06:44:10.569Z,3.50
2022-11-02T06:45:09.831Z,3.60
2022-11-02T06:46:10.094Z,3.60
2022-11-02T06:47:10.362Z,3.40
2022-11-02T06:48:10.600Z,3.90
2022-11-02T06:49:10.846Z,3.50
2022-11-02T06:50:11.065Z,3.80
2022-11-02T06:51:11.296Z,3.60
2022-11-02T06:52:11.550Z,3.90
2022-11-02T06:53:11.834Z,3.40
2022-11-02T06:54:12.081Z,3.60
2022-11-02T06:55:12.328Z,3.30
2022-11-02T06:56:12.558Z,3.50
2022-11-02T06:57:12.818Z,4.10
2022-11-02T06:58:13.055Z,3.30
2022-11-02T06:59:13.298Z,3.50
2022-11-02T07:00:15.451Z,12.00
2022-11-02T07:01:14.068Z,4.80
2022-11-02T07:02:14.110Z,3.90
2022-11-02T07:03:14.339Z,4.20
2022-11-02T07:04:14.620Z,3.60
2022-11-02T07:05:14.855Z,3.30
2022-11-02T07:06:15.130Z,3.60
2022-11-02T07:07:15.370Z,3.60
2022-11-02T07:08:15.644Z,3.50
2022-11-02T07:09:15.902Z,3.70
2022-11-02T07:10:16.176Z,3.60
2022-11-02T07:11:16.440Z,3.60
2022-11-02T07:12:20.534Z,3.70
2022-11-02T07:13:17.934Z,4.10
2022-11-02T07:14:17.229Z,3.90
2022-11-02T07:15:17.450Z,3.50
2022-11-02T07:16:17.689Z,3.70
2022-11-02T07:17:17.950Z,3.40
2022-11-02T07:18:18.244Z,3.60
2022-11-02T07:19:18.485Z,3.40
2022-11-02T07:20:18.735Z,4.10
2022-11-02T07:22:19.293Z,3.30
2022-11-02T07:23:19.508Z,3.90
2022-11-02T07:24:19.815Z,3.90
2022-11-02T07:25:20.047Z,3.80
2022-11-02T07:26:20.379Z,3.90
2022-11-02T07:27:20.638Z,3.80
2022-11-02T07:28:20.845Z,3.90
2022-11-02T07:29:21.093Z,3.80
2022-11-02T07:30:21.404Z,3.70
2022-11-02T07:31:21.652Z,3.20
2022-11-02T07:32:21.997Z,3.50
2022-11-02T07:33:22.224Z,3.70
2022-11-02T07:34:22.504Z,3.70
2022-11-02T07:35:22.820Z,3.60
2022-11-02T07:36:23.048Z,3.50
2022-11-02T07:37:23.351Z,3.50
2022-11-02T07:38:23.571Z,3.60
2022-11-02T07:39:23.800Z,3.60
2022-11-02T07:40:24.144Z,3.80
2022-11-02T07:41:24.334Z,3.70
2022-11-02T07:42:24.601Z,3.80
2022-11-02T07:43:24.840Z,4.10
2022-11-02T07:44:25.127Z,3.60
2022-11-02T07:45:25.382Z,3.50
2022-11-02T07:46:25.607Z,3.60
2022-11-02T07:47:25.883Z,3.70
2022-11-02T07:48:26.133Z,3.30
2022-11-02T07:49:26.383Z,3.40
2022-11-02T07:50:26.691Z,3.50
2022-11-02T07:51:26.936Z,3.30
2022-11-02T07:52:27.194Z,3.60
2022-11-02T07:53:27.501Z,3.10
2022-11-02T07:54:27.742Z,3.30
2022-11-02T07:55:27.994Z,3.30
2022-11-02T07:56:28.256Z,3.30
2022-11-02T07:57:28.507Z,3.70
2022-11-02T07:58:28.784Z,3.50
2022-11-02T07:59:29.082Z,3.60
2022-11-02T08:00:29.293Z,3.40
2022-11-02T08:01:29.635Z,3.30
2022-11-02T08:02:29.882Z,3.40
2022-11-02T08:03:30.133Z,3.50
2022-11-02T08:04:30.399Z,3.60
2022-11-02T08:05:30.574Z,3.80
2022-11-02T08:06:30.882Z,3.20
2022-11-02T08:07:31.104Z,3.20
2022-11-02T08:08:31.334Z,3.10
2022-11-02T08:09:31.689Z,3.30
2022-11-02T08:10:35.431Z,3.40
2022-11-02T08:11:33.222Z,3.50
2022-11-02T08:12:32.468Z,3.80
2022-11-02T08:13:33.050Z,3.60
2022-11-02T08:14:33.093Z,3.30
2022-11-02T08:15:33.311Z,3.20
2022-11-02T08:16:33.530Z,3.90
2022-11-02T08:17:33.888Z,3.80
2022-11-02T08:18:34.116Z,3.30
2022-11-02T08:19:34.378Z,3.50
2022-11-02T08:20:34.628Z,3.60
2022-11-02T08:21:34.907Z,3.50
2022-11-02T08:22:35.203Z,3.30
2022-11-02T08:23:35.409Z,3.60
2022-11-02T08:24:36.127Z,3.00
2022-11-02T08:25:36.002Z,3.60
2022-11-02T08:26:36.999Z,3.30
2022-11-02T08:27:36.518Z,3.40
2022-11-02T08:28:36.766Z,3.30
2022-11-02T08:29:37.046Z,3.20
2022-11-02T08:30:37.292Z,3.30
2022-11-02T08:31:37.550Z,3.40
2022-11-02T08:32:37.860Z,3.50
2022-11-02T08:33:38.058Z,3.70
2022-11-02T08:34:38.345Z,3.80
2022-11-02T08:35:38.616Z,3.30
2022-11-02T08:36:38.886Z,3.50
2022-11-02T08:37:39.120Z,3.30
2022-11-02T08:38:39.366Z,3.60
2022-11-02T08:39:39.600Z,3.60
2022-11-02T08:40:39.861Z,3.30
2022-11-02T08:41:40.124Z,3.50
2022-11-02T08:42:40.410Z,3.50
2022-11-02T08:43:40.639Z,3.50
2022-11-02T08:44:42.761Z,3.20
2022-11-02T08:46:42.453Z,3.60
2022-11-02T08:47:41.698Z,3.60
2022-11-02T08:48:41.955Z,3.30
2022-11-02T08:49:42.227Z,3.40
2022-11-02T08:50:42.539Z,3.60
2022-11-02T08:51:42.780Z,3.50
2022-11-02T08:52:43.006Z,3.30
2022-11-02T08:53:48.576Z,3.40
2022-11-02T08:54:44.518Z,4.10
2022-11-02T08:55:43.785Z,3.60
2022-11-02T08:56:44.001Z,3.30
2022-11-02T08:57:44.345Z,3.70
2022-11-02T08:58:44.687Z,3.30
2022-11-02T08:59:44.883Z,3.50
2022-11-02T09:00:45.151Z,3.30
2022-11-02T09:01:45.534Z,3.70
2022-11-02T09:02:45.689Z,3.50
2022-11-02T09:03:45.892Z,3.90
2022-11-02T09:04:46.143Z,3.40
2022-11-02T09:05:46.413Z,3.60
2022-11-02T09:06:46.686Z,4.80
2022-11-02T09:07:46.972Z,5.80
2022-11-02T09:08:47.295Z,4.70
2022-11-02T09:09:47.522Z,5.10
2022-11-02T09:10:47.789Z,4.50
2022-11-02T09:11:48.019Z,4.10
2022-11-02T09:12:48.302Z,4.00
2022-11-02T09:13:52.819Z,3.50
2022-11-02T09:14:49.863Z,4.80
2022-11-02T09:15:49.176Z,3.60
2022-11-02T09:16:49.458Z,3.50
2022-11-02T09:17:49.728Z,3.70
2022-11-02T09:18:50.001Z,3.30
2022-11-02T09:19:50.258Z,3.30
2022-11-02T09:20:50.503Z,3.50
2022-11-02T09:21:50.748Z,3.30
2022-11-02T09:22:50.984Z,3.50
2022-11-02T09:23:51.250Z,3.40
2022-11-02T09:24:51.508Z,3.20
2022-11-02T09:25:51.896Z,3.60
2022-11-02T09:26:52.108Z,3.40
2022-11-02T09:27:55.398Z,3.20
2022-11-02T09:28:52.616Z,3.50
2022-11-02T09:29:52.912Z,3.50
2022-11-02T09:30:53.129Z,3.20
2022-11-02T09:31:53.415Z,7.30
2022-11-02T09:32:53.671Z,3.60
2022-11-02T09:33:53.916Z,3.70
2022-11-02T09:34:54.199Z,3.50
2022-11-02T09:35:54.435Z,3.30
2022-11-02T09:36:54.694Z,3.50
2022-11-02T09:37:54.934Z,3.40
2022-11-02T09:38:55.186Z,3.30
2022-11-02T09:39:55.475Z,3.70
2022-11-02T09:40:55.760Z,3.40
2022-11-02T09:41:55.995Z,3.70
2022-11-02T09:42:56.263Z,3.30
2022-11-02T09:43:56.529Z,3.30
2022-11-02T09:44:56.801Z,3.70
2022-11-02T09:45:57.102Z,4.20
2022-11-02T09:47:39.761Z,4.20
2022-11-02T09:48:28.956Z,4.60
2022-11-02T09:48:59.033Z,4.50
2022-11-02T09:49:58.247Z,4.10
2022-11-02T09:51:01.981Z,3.70
2022-11-02T09:51:58.744Z,3.60
2022-11-02T09:52:58.970Z,3.30
2022-11-02T09:53:59.222Z,3.50
2022-11-02T09:54:59.594Z,3.30
2022-11-02T09:55:59.759Z,3.80
2022-11-02T09:57:00.003Z,3.90
2022-11-02T09:58:00.259Z,3.80
2022-11-02T09:59:00.506Z,3.60
2022-11-02T10:00:00.758Z,3.30
2022-11-02T10:01:02.054Z,3.80
2022-11-02T10:02:01.673Z,4.00
2022-11-02T10:03:01.600Z,3.60
2022-11-02T10:04:01.855Z,3.80
2022-11-02T10:05:02.099Z,3.60
2022-11-02T10:06:02.431Z,3.30
2022-11-02T10:07:02.709Z,3.70
2022-11-02T10:08:03.409Z,3.90
2022-11-02T10:09:03.253Z,3.70
2022-11-02T10:10:03.485Z,4.00
2022-11-02T10:11:07.926Z,3.70
2022-11-02T10:12:03.999Z,3.70
2022-11-02T10:13:04.663Z,3.60
2022-11-02T10:14:04.561Z,3.80
2022-11-02T10:15:04.913Z,3.80
2022-11-02T10:16:05.117Z,3.50
2022-11-02T10:17:05.395Z,3.70
2022-11-02T10:18:05.648Z,3.60
2022-11-02T10:19:05.972Z,3.60
2022-11-02T10:20:06.229Z,3.70
2022-11-02T10:21:06.530Z,3.70
2022-11-02T10:22:06.798Z,3.40
2022-11-02T10:23:07.483Z,3.70
2022-11-02T10:24:07.828Z,3.50
2022-11-02T10:25:07.625Z,4.20
2022-11-02T10:26:07.843Z,3.40
2022-11-02T10:27:13.831Z,3.60
2022-11-02T10:28:09.440Z,3.70
2022-11-02T10:29:08.727Z,4.00
2022-11-02T10:30:08.943Z,5.50
2022-11-02T10:31:14.527Z,4.50
2022-11-02T10:32:10.494Z,4.10
2022-11-02T10:33:09.785Z,3.70
2022-11-02T10:34:10.063Z,4.00
2022-11-02T10:35:30.052Z,3.30
2022-11-02T10:36:18.076Z,3.40
2022-11-02T10:37:11.989Z,3.40
2022-11-02T10:38:14.995Z,3.20
2022-11-02T10:39:11.583Z,3.20
2022-11-02T10:40:11.840Z,3.60
2022-11-02T10:41:12.147Z,3.40
2022-11-02T10:42:12.365Z,3.90
2022-11-02T10:43:12.653Z,3.80
2022-11-02T10:44:12.994Z,3.70
2022-11-02T10:45:13.189Z,3.70
2022-11-02T10:46:13.449Z,3.50
2022-11-02T10:47:13.758Z,3.20
2022-11-02T10:48:14.533Z,3.20
2022-11-02T10:49:14.306Z,4.60
2022-11-02T10:50:14.588Z,5.70
2022-11-02T10:51:14.866Z,4.00
2022-11-02T10:52:15.183Z,4.40
2022-11-02T10:53:39.665Z,4.60
2022-11-02T10:54:20.522Z,4.20
2022-11-02T10:55:16.945Z,4.40
2022-11-02T10:56:16.222Z,4.50
2022-11-02T10:57:16.552Z,3.40
2022-11-02T10:58:16.812Z,3.50
2022-11-02T10:59:17.067Z,3.40
2022-11-02T11:00:17.342Z,4.00
2022-11-02T11:01:17.749Z,3.30
2022-11-02T11:02:17.876Z,3.80
2022-11-02T11:03:18.133Z,3.60
2022-11-02T11:04:18.401Z,3.90
2022-11-02T11:05:18.646Z,3.30
2022-11-02T11:06:18.990Z,5.80
2022-11-02T11:07:19.298Z,6.10
2022-11-02T11:08:19.527Z,5.70
2022-11-02T11:09:19.777Z,7.50
2022-11-02T11:10:20.032Z,5.20
2022-11-02T11:11:20.306Z,5.10
2022-11-02T11:12:20.603Z,5.10
2022-11-02T11:16:25.577Z,4.20
2022-11-02T11:19:39.988Z,5.00
2022-11-02T11:20:23.941Z,5.40
2022-11-02T11:21:23.201Z,8.00
2022-11-02T11:22:23.580Z,10.90
2022-11-02T11:23:23.713Z,7.50
2022-11-02T11:24:24.031Z,8.60
2022-11-02T11:25:27.555Z,5.80
2022-11-02T11:26:24.563Z,5.00
2022-11-02T11:27:25.051Z,5.60
2022-11-02T11:28:25.212Z,7.90
2022-11-02T11:29:25.459Z,12.00
2022-11-02T11:30:53.982Z,6.30
2022-11-02T11:31:27.021Z,4.80
2022-11-02T11:32:30.215Z,6.00
2022-11-02T11:33:26.568Z,9.40
2022-11-02T11:34:26.874Z,9.40
2022-11-02T11:35:27.175Z,8.00
2022-11-02T11:36:27.903Z,5.60
2022-11-02T11:37:27.715Z,6.00
2022-11-02T11:38:27.971Z,4.90
2022-11-02T11:39:28.250Z,5.10
2022-11-02T11:40:28.484Z,6.30
2022-11-02T11:41:28.782Z,5.30
2022-11-02T11:42:29.045Z,3.50
2022-11-02T11:43:29.278Z,6.00
2022-11-02T11:44:29.494Z,3.20
2022-11-02T11:45:29.739Z,3.10
2022-11-02T11:46:30.009Z,3.20
2022-11-02T11:47:30.292Z,3.10
2022-11-02T11:48:30.616Z,3.30
2022-11-02T11:49:48.148Z,3.60
2022-11-02T11:50:32.180Z,3.40
2022-11-02T11:51:31.490Z,4.40
2022-11-02T11:52:32.564Z,4.60
2022-11-02T11:53:32.004Z,5.20
2022-11-02T11:54:32.321Z,4.20
2022-11-02T11:55:32.727Z,3.50
2022-11-02T11:56:32.909Z,5.50
2022-11-02T11:57:33.210Z,4.10
2022-11-02T11:58:33.421Z,5.60
2022-11-02T11:59:33.708Z,5.50
2022-11-02T12:00:34.009Z,5.30
2022-11-02T12:01:34.343Z,3.80
2022-11-02T12:02:39.366Z,4.10
2022-11-02T12:03:35.864Z,5.20
2022-11-02T12:04:35.127Z,5.80
2022-11-02T12:05:35.375Z,4.50
2022-11-02T12:06:35.659Z,4.10
2022-11-02T12:07:35.902Z,4.30
2022-11-02T12:08:36.169Z,6.70
2022-11-02T12:09:36.431Z,5.60
2022-11-02T12:10:36.697Z,5.50
2022-11-02T12:11:36.991Z,4.50
2022-11-02T12:12:37.317Z,3.50
2022-11-02T12:13:37.559Z,3.70
2022-11-02T12:14:37.888Z,3.90
2022-11-02T12:15:38.088Z,4.00
2022-11-02T12:16:38.331Z,4.70
2022-11-02T12:17:38.579Z,4.60
2022-11-02T12:18:38.859Z,5.50
2022-11-02T12:19:39.210Z,7.40
2022-11-02T12:20:39.405Z,6.40
2022-11-02T12:21:39.668Z,8.50
2022-11-02T12:22:40.063Z,19.60
2022-11-02T12:23:40.168Z,18.70
2022-11-02T12:24:40.497Z,15.10
2022-11-02T12:25:40.694Z,8.60
2022-11-02T12:26:40.950Z,5.80
2022-11-02T12:27:41.194Z,4.20
2022-11-02T12:28:41.496Z,6.60
2022-11-02T12:29:41.804Z,5.70
2022-11-02T12:30:42.057Z,5.40
2022-11-02T12:31:42.327Z,6.10
2022-11-02T12:32:42.584Z,6.60
2022-11-02T12:33:42.924Z,16.00
2022-11-02T12:34:44.501Z,11.30
2022-11-02T12:35:43.392Z,9.80
2022-11-02T12:37:10.313Z,11.50
2022-11-02T12:37:45.012Z,11.60
2022-11-02T12:38:44.137Z,7.00
2022-11-02T12:39:44.596Z,5.90
2022-11-02T12:40:44.772Z,5.20
2022-11-02T12:41:45.176Z,4.20
2022-11-02T12:42:45.424Z,3.70
2022-11-02T12:43:45.716Z,3.60
2022-11-02T12:44:46.012Z,5.80
2022-11-02T12:45:46.232Z,3.90
2022-11-02T12:46:49.143Z,3.40
2022-11-02T12:47:46.766Z,3.20
2022-11-02T12:48:47.048Z,3.10
2022-11-02T12:49:47.285Z,3.00
2022-11-02T12:50:47.526Z,3.00
2022-11-02T12:51:47.814Z,7.20
2022-11-02T12:52:48.040Z,8.80
2022-11-02T12:53:48.278Z,8.10
2022-11-02T12:54:48.547Z,3.70
2022-11-02T12:55:48.803Z,3.60
2022-11-02T12:56:49.066Z,4.00
2022-11-02T12:57:49.365Z,7.00
2022-11-02T12:58:49.626Z,9.80
2022-11-02T12:59:49.958Z,7.90
2022-11-02T13:00:50.211Z,10.80
2022-11-02T13:01:50.766Z,12.40
2022-11-02T13:02:50.779Z,8.00
2022-11-02T13:03:51.064Z,7.10
2022-11-02T13:04:51.369Z,7.60
2022-11-02T13:05:51.599Z,7.00
2022-11-02T13:06:51.914Z,7.10
2022-11-02T13:07:52.575Z,9.20
2022-11-02T13:08:52.458Z,7.00
2022-11-02T13:09:54.615Z,7.40
2022-11-02T13:10:53.866Z,8.80
2022-11-02T13:11:53.335Z,9.20
2022-11-02T13:12:53.678Z,5.00
2022-11-02T13:13:54.123Z,5.90
2022-11-02T13:14:54.224Z,4.80
2022-11-02T13:15:54.446Z,5.40
2022-11-02T13:16:54.703Z,6.20
2022-11-02T13:17:55.184Z,6.00
2022-11-02T13:18:55.355Z,6.90
2022-11-02T13:19:55.886Z,4.80
2022-11-02T13:20:55.899Z,4.40
2022-11-02T13:21:56.249Z,4.50
2022-11-02T13:22:56.417Z,4.10
2022-11-02T13:23:56.635Z,3.50
2022-11-02T13:24:57.044Z,6.30
2022-11-02T13:25:57.285Z,10.40
2022-11-02T13:27:07.573Z,8.40
2022-11-02T13:28:04.212Z,8.50
2022-11-02T13:28:59.001Z,5.90
2022-11-02T13:29:58.244Z,5.60